sensor_id;sensor_type;location;lat;lon;timestamp;P1;durP1;ratioP1;P2;durP2;ratioP2
82288;SDS011;71889;39.264;-120.910;2024-02-23T00:02:03;1.52;;;0.80;;
82288;SDS011;71889;39.264;-120.910;2024-02-23T00:04:50;1.20;;;0.52;;
82288;SDS011;71889;39.264;-120.910;2024-02-23T00:07:37;2.65;;;0.70;;
82288;SDS011;71889;39.264;-120.910;2024-02-23T00:10:24;1.35;;;0.52;;
82288;SDS011;71889;39.264;-120.910;2024-02-23T00:13:11;0.98;;;0.50;;
82288;SDS011;71889;39.264;-120.910;2024-02-23T00:15:58;1.38;;;0.65;;
82288;SDS011;71889;39.264;-120.910;2024-02-23T00:18:45;1.73;;;0.80;;
82288;SDS011;71889;39.264;-120.910;2024-02-23T00:21:32;2.60;;;0.85;;
82288;SDS011;71889;39.264;-120.910;2024-02-23T00:24:19;1.77;;;1.00;;
82288;SDS011;71889;39.264;-120.910;2024-02-23T00:27:06;3.58;;;1.33;;
82288;SDS011;71889;39.264;-120.910;2024-02-23T00:29:53;3.10;;;1.27;;
82288;SDS011;71889;39.264;-120.910;2024-02-23T00:32:40;2.20;;;0.98;;
82288;SDS011;71889;39.264;-120.910;2024-02-23T00:35:27;2.65;;;1.10;;
82288;SDS011;71889;39.264;-120.910;2024-02-23T00:38:14;2.92;;;0.80;;
82288;SDS011;71889;39.264;-120.910;2024-02-23T00:41:00;2.08;;;0.70;;
82288;SDS011;71889;39.264;-120.910;2024-02-23T00:43:47;2.42;;;0.82;;
82288;SDS011;71889;39.264;-120.910;2024-02-23T00:46:34;2.47;;;1.00;;
82288;SDS011;71889;39.264;-120.910;2024-02-23T00:49:21;2.17;;;0.90;;
82288;SDS011;71889;39.264;-120.910;2024-02-23T00:52:08;1.70;;;1.05;;
82288;SDS011;71889;39.264;-120.910;2024-02-23T00:54:55;2.25;;;0.90;;
82288;SDS011;71889;39.264;-120.910;2024-02-23T00:57:42;3.03;;;1.05;;
82288;SDS011;71889;39.264;-120.910;2024-02-23T01:00:29;2.13;;;0.98;;
82288;SDS011;71889;39.264;-120.910;2024-02-23T01:03:16;3.60;;;1.10;;
82288;SDS011;71889;39.264;-120.910;2024-02-23T01:06:03;14.27;;;6.28;;
82288;SDS011;71889;39.264;-120.910;2024-02-23T01:08:50;10.07;;;3.97;;
82288;SDS011;71889;39.264;-120.910;2024-02-23T01:11:37;11.20;;;4.50;;
82288;SDS011;71889;39.264;-120.910;2024-02-23T01:14:24;26.45;;;11.82;;
82288;SDS011;71889;39.264;-120.910;2024-02-23T01:17:11;28.50;;;10.52;;
82288;SDS011;71889;39.264;-120.910;2024-02-23T01:19:58;29.67;;;11.00;;
82288;SDS011;71889;39.264;-120.910;2024-02-23T01:22:45;11.30;;;4.75;;
82288;SDS011;71889;39.264;-120.910;2024-02-23T01:25:32;6.93;;;3.28;;
82288;SDS011;71889;39.264;-120.910;2024-02-23T01:28:20;9.50;;;3.78;;
82288;SDS011;71889;39.264;-120.910;2024-02-23T01:31:08;11.60;;;4.78;;
82288;SDS011;71889;39.264;-120.910;2024-02-23T01:33:58;6.47;;;3.13;;
82288;SDS011;71889;39.264;-120.910;2024-02-23T01:36:45;4.07;;;2.28;;
82288;SDS011;71889;39.264;-120.910;2024-02-23T01:39:32;5.20;;;1.88;;
82288;SDS011;71889;39.264;-120.910;2024-02-23T01:42:21;4.30;;;2.05;;
82288;SDS011;71889;39.264;-120.910;2024-02-23T01:45:09;4.30;;;2.58;;
82288;SDS011;71889;39.264;-120.910;2024-02-23T01:47:56;4.72;;;3.00;;
82288;SDS011;71889;39.264;-120.910;2024-02-23T01:50:44;5.07;;;3.28;;
82288;SDS011;71889;39.264;-120.910;2024-02-23T01:53:32;9.45;;;4.95;;
82288;SDS011;71889;39.264;-120.910;2024-02-23T01:56:19;11.15;;;6.75;;
82288;SDS011;71889;39.264;-120.910;2024-02-23T01:59:06;12.18;;;7.88;;
82288;SDS011;71889;39.264;-120.910;2024-02-23T02:01:54;11.88;;;7.80;;
82288;SDS011;71889;39.264;-120.910;2024-02-23T02:04:41;12.73;;;7.18;;
82288;SDS011;71889;39.264;-120.910;2024-02-23T02:07:28;8.27;;;5.20;;
82288;SDS011;71889;39.264;-120.910;2024-02-23T02:10:15;5.03;;;3.47;;
82288;SDS011;71889;39.264;-120.910;2024-02-23T02:13:03;4.57;;;2.80;;
82288;SDS011;71889;39.264;-120.910;2024-02-23T02:15:50;8.63;;;3.67;;
82288;SDS011;71889;39.264;-120.910;2024-02-23T02:18:37;6.80;;;3.85;;
82288;SDS011;71889;39.264;-120.910;2024-02-23T02:21:24;5.57;;;3.40;;
82288;SDS011;71889;39.264;-120.910;2024-02-23T02:24:11;8.07;;;2.70;;
82288;SDS011;71889;39.264;-120.910;2024-02-23T02:26:58;15.48;;;5.95;;
82288;SDS011;71889;39.264;-120.910;2024-02-23T02:29:45;20.00;;;9.20;;
82288;SDS011;71889;39.264;-120.910;2024-02-23T02:32:32;19.17;;;9.57;;
82288;SDS011;71889;39.264;-120.910;2024-02-23T02:35:19;24.35;;;12.20;;
82288;SDS011;71889;39.264;-120.910;2024-02-23T02:38:06;24.42;;;11.43;;
82288;SDS011;71889;39.264;-120.910;2024-02-23T02:40:53;25.13;;;12.70;;
82288;SDS011;71889;39.264;-120.910;2024-02-23T02:43:40;18.58;;;10.10;;
82288;SDS011;71889;39.264;-120.910;2024-02-23T02:46:26;13.75;;;7.07;;
82288;SDS011;71889;39.264;-120.910;2024-02-23T02:49:13;23.98;;;11.25;;
82288;SDS011;71889;39.264;-120.910;2024-02-23T02:52:00;17.65;;;9.38;;
82288;SDS011;71889;39.264;-120.910;2024-02-23T02:54:47;10.52;;;5.55;;
82288;SDS011;71889;39.264;-120.910;2024-02-23T02:57:35;11.02;;;5.32;;
82288;SDS011;71889;39.264;-120.910;2024-02-23T03:00:21;10.43;;;5.60;;
82288;SDS011;71889;39.264;-120.910;2024-02-23T03:03:08;15.20;;;7.43;;
82288;SDS011;71889;39.264;-120.910;2024-02-23T03:05:56;14.23;;;7.53;;
82288;SDS011;71889;39.264;-120.910;2024-02-23T03:08:42;16.33;;;8.98;;
82288;SDS011;71889;39.264;-120.910;2024-02-23T03:11:29;16.38;;;7.85;;
82288;SDS011;71889;39.264;-120.910;2024-02-23T03:14:16;14.93;;;7.57;;
82288;SDS011;71889;39.264;-120.910;2024-02-23T03:17:04;21.25;;;11.52;;
82288;SDS011;71889;39.264;-120.910;2024-02-23T03:19:51;25.25;;;11.85;;
82288;SDS011;71889;39.264;-120.910;2024-02-23T03:22:38;17.25;;;8.05;;
82288;SDS011;71889;39.264;-120.910;2024-02-23T03:25:25;8.70;;;4.43;;
82288;SDS011;71889;39.264;-120.910;2024-02-23T03:28:12;5.47;;;3.42;;
82288;SDS011;71889;39.264;-120.910;2024-02-23T03:31:02;6.00;;;3.42;;
82288;SDS011;71889;39.264;-120.910;2024-02-23T03:33:49;9.35;;;4.28;;
82288;SDS011;71889;39.264;-120.910;2024-02-23T03:36:36;9.82;;;4.75;;
82288;SDS011;71889;39.264;-120.910;2024-02-23T03:39:23;7.97;;;5.20;;
82288;SDS011;71889;39.264;-120.910;2024-02-23T03:42:10;10.98;;;5.47;;
82288;SDS011;71889;39.264;-120.910;2024-02-23T03:44:57;10.30;;;5.97;;
82288;SDS011;71889;39.264;-120.910;2024-02-23T03:47:44;6.93;;;3.75;;
82288;SDS011;71889;39.264;-120.910;2024-02-23T03:50:31;7.93;;;4.45;;
82288;SDS011;71889;39.264;-120.910;2024-02-23T03:53:18;8.73;;;4.75;;
82288;SDS011;71889;39.264;-120.910;2024-02-23T03:56:05;8.00;;;4.70;;
82288;SDS011;71889;39.264;-120.910;2024-02-23T03:58:52;10.95;;;5.93;;
82288;SDS011;71889;39.264;-120.910;2024-02-23T04:01:39;7.93;;;4.93;;
82288;SDS011;71889;39.264;-120.910;2024-02-23T04:04:26;4.90;;;2.58;;
82288;SDS011;71889;39.264;-120.910;2024-02-23T04:07:13;6.45;;;3.95;;
82288;SDS011;71889;39.264;-120.910;2024-02-23T04:10:01;12.25;;;7.55;;
82288;SDS011;71889;39.264;-120.910;2024-02-23T04:12:50;20.55;;;10.93;;
82288;SDS011;71889;39.264;-120.910;2024-02-23T04:15:36;9.68;;;4.97;;
82288;SDS011;71889;39.264;-120.910;2024-02-23T04:18:23;5.43;;;3.08;;
82288;SDS011;71889;39.264;-120.910;2024-02-23T04:21:10;8.82;;;4.05;;
82288;SDS011;71889;39.264;-120.910;2024-02-23T04:23:58;17.45;;;6.72;;
82288;SDS011;71889;39.264;-120.910;2024-02-23T04:26:45;15.65;;;5.07;;
82288;SDS011;71889;39.264;-120.910;2024-02-23T04:29:32;9.95;;;4.72;;
82288;SDS011;71889;39.264;-120.910;2024-02-23T04:32:19;12.13;;;4.65;;
82288;SDS011;71889;39.264;-120.910;2024-02-23T04:35:06;4.78;;;2.38;;
82288;SDS011;71889;39.264;-120.910;2024-02-23T04:37:53;6.05;;;2.53;;
82288;SDS011;71889;39.264;-120.910;2024-02-23T04:40:40;7.90;;;3.20;;
82288;SDS011;71889;39.264;-120.910;2024-02-23T04:43:27;10.30;;;3.53;;
82288;SDS011;71889;39.264;-120.910;2024-02-23T04:46:14;17.73;;;5.53;;
82288;SDS011;71889;39.264;-120.910;2024-02-23T04:49:01;23.10;;;7.90;;
82288;SDS011;71889;39.264;-120.910;2024-02-23T04:51:48;22.17;;;7.25;;
82288;SDS011;71889;39.264;-120.910;2024-02-23T04:54:35;9.85;;;3.05;;
82288;SDS011;71889;39.264;-120.910;2024-02-23T04:57:22;5.40;;;2.00;;
82288;SDS011;71889;39.264;-120.910;2024-02-23T05:00:09;4.70;;;2.42;;
82288;SDS011;71889;39.264;-120.910;2024-02-23T05:02:56;6.18;;;2.72;;
82288;SDS011;71889;39.264;-120.910;2024-02-23T05:05:43;6.50;;;2.53;;
82288;SDS011;71889;39.264;-120.910;2024-02-23T05:08:30;7.18;;;2.83;;
82288;SDS011;71889;39.264;-120.910;2024-02-23T05:11:17;6.90;;;2.45;;
82288;SDS011;71889;39.264;-120.910;2024-02-23T05:14:04;4.75;;;2.47;;
82288;SDS011;71889;39.264;-120.910;2024-02-23T05:16:51;3.97;;;2.35;;
82288;SDS011;71889;39.264;-120.910;2024-02-23T05:19:38;4.28;;;2.15;;
82288;SDS011;71889;39.264;-120.910;2024-02-23T05:22:25;3.95;;;2.17;;
82288;SDS011;71889;39.264;-120.910;2024-02-23T05:25:12;7.38;;;2.92;;
82288;SDS011;71889;39.264;-120.910;2024-02-23T05:27:59;7.65;;;2.78;;
82288;SDS011;71889;39.264;-120.910;2024-02-23T05:30:46;4.20;;;1.92;;
82288;SDS011;71889;39.264;-120.910;2024-02-23T05:33:33;4.68;;;1.45;;
82288;SDS011;71889;39.264;-120.910;2024-02-23T05:36:20;3.70;;;1.40;;
82288;SDS011;71889;39.264;-120.910;2024-02-23T05:39:07;5.22;;;2.55;;
82288;SDS011;71889;39.264;-120.910;2024-02-23T05:41:55;16.13;;;8.05;;
82288;SDS011;71889;39.264;-120.910;2024-02-23T05:44:43;15.05;;;8.52;;
82288;SDS011;71889;39.264;-120.910;2024-02-23T05:47:30;9.73;;;5.35;;
82288;SDS011;71889;39.264;-120.910;2024-02-23T05:50:17;9.85;;;4.70;;
82288;SDS011;71889;39.264;-120.910;2024-02-23T05:53:04;10.23;;;5.70;;
82288;SDS011;71889;39.264;-120.910;2024-02-23T05:55:51;12.50;;;6.57;;
82288;SDS011;71889;39.264;-120.910;2024-02-23T05:58:38;10.85;;;6.15;;
82288;SDS011;71889;39.264;-120.910;2024-02-23T06:01:28;9.32;;;5.00;;
82288;SDS011;71889;39.264;-120.910;2024-02-23T06:04:15;12.57;;;6.20;;
82288;SDS011;71889;39.264;-120.910;2024-02-23T06:07:02;13.50;;;7.25;;
82288;SDS011;71889;39.264;-120.910;2024-02-23T06:09:49;20.60;;;10.63;;
82288;SDS011;71889;39.264;-120.910;2024-02-23T06:12:35;25.27;;;13.73;;
82288;SDS011;71889;39.264;-120.910;2024-02-23T06:15:24;23.83;;;10.70;;
82288;SDS011;71889;39.264;-120.910;2024-02-23T06:18:10;18.40;;;8.40;;
82288;SDS011;71889;39.264;-120.910;2024-02-23T06:20:57;14.23;;;6.22;;
82288;SDS011;71889;39.264;-120.910;2024-02-23T06:23:44;9.80;;;5.25;;
82288;SDS011;71889;39.264;-120.910;2024-02-23T06:26:32;10.88;;;6.13;;
82288;SDS011;71889;39.264;-120.910;2024-02-23T06:29:19;13.00;;;6.10;;
82288;SDS011;71889;39.264;-120.910;2024-02-23T06:32:06;7.70;;;3.97;;
82288;SDS011;71889;39.264;-120.910;2024-02-23T06:34:53;8.70;;;2.90;;
82288;SDS011;71889;39.264;-120.910;2024-02-23T06:37:40;5.85;;;2.90;;
82288;SDS011;71889;39.264;-120.910;2024-02-23T06:40:27;5.53;;;2.65;;
82288;SDS011;71889;39.264;-120.910;2024-02-23T06:43:14;7.15;;;2.63;;
82288;SDS011;71889;39.264;-120.910;2024-02-23T06:46:08;4.20;;;2.35;;
82288;SDS011;71889;39.264;-120.910;2024-02-23T06:48:55;6.93;;;2.30;;
82288;SDS011;71889;39.264;-120.910;2024-02-23T06:51:42;6.68;;;2.40;;
82288;SDS011;71889;39.264;-120.910;2024-02-23T06:54:28;7.40;;;2.90;;
82288;SDS011;71889;39.264;-120.910;2024-02-23T06:57:15;7.18;;;2.17;;
82288;SDS011;71889;39.264;-120.910;2024-02-23T07:00:02;6.65;;;2.50;;
82288;SDS011;71889;39.264;-120.910;2024-02-23T07:02:49;6.82;;;2.40;;
82288;SDS011;71889;39.264;-120.910;2024-02-23T07:05:37;6.03;;;2.47;;
82288;SDS011;71889;39.264;-120.910;2024-02-23T07:08:24;6.10;;;1.88;;
82288;SDS011;71889;39.264;-120.910;2024-02-23T07:11:11;3.58;;;1.83;;
82288;SDS011;71889;39.264;-120.910;2024-02-23T07:13:58;4.70;;;2.13;;
82288;SDS011;71889;39.264;-120.910;2024-02-23T07:16:45;8.20;;;4.15;;
82288;SDS011;71889;39.264;-120.910;2024-02-23T07:19:32;7.88;;;3.30;;
82288;SDS011;71889;39.264;-120.910;2024-02-23T07:22:19;11.82;;;5.45;;
82288;SDS011;71889;39.264;-120.910;2024-02-23T07:25:06;17.80;;;7.30;;
82288;SDS011;71889;39.264;-120.910;2024-02-23T07:27:53;8.90;;;3.35;;
82288;SDS011;71889;39.264;-120.910;2024-02-23T07:30:40;5.97;;;2.40;;
82288;SDS011;71889;39.264;-120.910;2024-02-23T07:33:27;6.35;;;2.70;;
82288;SDS011;71889;39.264;-120.910;2024-02-23T07:36:14;8.23;;;4.05;;
82288;SDS011;71889;39.264;-120.910;2024-02-23T07:39:01;6.13;;;3.40;;
82288;SDS011;71889;39.264;-120.910;2024-02-23T07:41:48;8.50;;;4.03;;
82288;SDS011;71889;39.264;-120.910;2024-02-23T07:44:35;5.10;;;3.60;;
82288;SDS011;71889;39.264;-120.910;2024-02-23T07:47:23;5.70;;;4.10;;
82288;SDS011;71889;39.264;-120.910;2024-02-23T07:50:12;5.90;;;3.10;;
82288;SDS011;71889;39.264;-120.910;2024-02-23T07:52:59;4.20;;;2.33;;
82288;SDS011;71889;39.264;-120.910;2024-02-23T07:55:46;2.95;;;1.42;;
82288;SDS011;71889;39.264;-120.910;2024-02-23T07:58:33;2.67;;;1.40;;
82288;SDS011;71889;39.264;-120.910;2024-02-23T08:01:20;2.05;;;1.05;;
82288;SDS011;71889;39.264;-120.910;2024-02-23T08:04:07;2.03;;;1.00;;
82288;SDS011;71889;39.264;-120.910;2024-02-23T08:06:54;1.52;;;1.00;;
82288;SDS011;71889;39.264;-120.910;2024-02-23T08:09:41;2.08;;;1.15;;
82288;SDS011;71889;39.264;-120.910;2024-02-23T08:12:28;2.90;;;0.90;;
82288;SDS011;71889;39.264;-120.910;2024-02-23T08:15:15;1.75;;;1.05;;
82288;SDS011;71889;39.264;-120.910;2024-02-23T08:18:02;2.40;;;1.17;;
82288;SDS011;71889;39.264;-120.910;2024-02-23T08:20:49;3.35;;;0.88;;
82288;SDS011;71889;39.264;-120.910;2024-02-23T08:23:36;2.70;;;1.00;;
82288;SDS011;71889;39.264;-120.910;2024-02-23T08:26:23;2.13;;;0.70;;
82288;SDS011;71889;39.264;-120.910;2024-02-23T08:29:10;1.15;;;0.63;;
82288;SDS011;71889;39.264;-120.910;2024-02-23T08:31:57;2.85;;;1.40;;
82288;SDS011;71889;39.264;-120.910;2024-02-23T08:34:44;4.45;;;1.15;;
82288;SDS011;71889;39.264;-120.910;2024-02-23T08:37:31;3.42;;;1.30;;
82288;SDS011;71889;39.264;-120.910;2024-02-23T08:40:17;3.83;;;1.50;;
82288;SDS011;71889;39.264;-120.910;2024-02-23T08:43:05;2.85;;;1.60;;
82288;SDS011;71889;39.264;-120.910;2024-02-23T08:45:51;2.97;;;1.45;;
82288;SDS011;71889;39.264;-120.910;2024-02-23T08:48:38;6.80;;;2.03;;
82288;SDS011;71889;39.264;-120.910;2024-02-23T08:51:25;4.38;;;1.88;;
82288;SDS011;71889;39.264;-120.910;2024-02-23T08:54:12;4.88;;;2.80;;
82288;SDS011;71889;39.264;-120.910;2024-02-23T08:56:59;5.90;;;2.78;;
82288;SDS011;71889;39.264;-120.910;2024-02-23T08:59:46;5.07;;;1.95;;
82288;SDS011;71889;39.264;-120.910;2024-02-23T09:02:33;5.57;;;2.70;;
82288;SDS011;71889;39.264;-120.910;2024-02-23T09:05:20;5.55;;;2.28;;
82288;SDS011;71889;39.264;-120.910;2024-02-23T09:08:07;3.80;;;1.52;;
82288;SDS011;71889;39.264;-120.910;2024-02-23T09:10:54;6.22;;;1.95;;
82288;SDS011;71889;39.264;-120.910;2024-02-23T09:13:41;4.53;;;2.33;;
82288;SDS011;71889;39.264;-120.910;2024-02-23T09:16:28;4.03;;;1.50;;
82288;SDS011;71889;39.264;-120.910;2024-02-23T09:19:16;3.63;;;1.35;;
82288;SDS011;71889;39.264;-120.910;2024-02-23T09:22:04;3.85;;;1.75;;
82288;SDS011;71889;39.264;-120.910;2024-02-23T09:24:51;4.28;;;1.48;;
82288;SDS011;71889;39.264;-120.910;2024-02-23T09:27:38;3.70;;;1.50;;
82288;SDS011;71889;39.264;-120.910;2024-02-23T09:30:29;3.03;;;1.42;;
82288;SDS011;71889;39.264;-120.910;2024-02-23T09:33:16;2.25;;;1.33;;
82288;SDS011;71889;39.264;-120.910;2024-02-23T09:36:03;3.03;;;1.60;;
82288;SDS011;71889;39.264;-120.910;2024-02-23T09:38:50;1.90;;;1.00;;
82288;SDS011;71889;39.264;-120.910;2024-02-23T09:41:37;1.92;;;1.40;;
82288;SDS011;71889;39.264;-120.910;2024-02-23T09:44:26;1.77;;;1.30;;
82288;SDS011;71889;39.264;-120.910;2024-02-23T09:47:22;2.55;;;1.40;;
82288;SDS011;71889;39.264;-120.910;2024-02-23T09:50:09;4.45;;;1.67;;
82288;SDS011;71889;39.264;-120.910;2024-02-23T09:52:56;1.98;;;1.02;;
82288;SDS011;71889;39.264;-120.910;2024-02-23T09:55:44;2.33;;;1.05;;
82288;SDS011;71889;39.264;-120.910;2024-02-23T09:58:35;2.38;;;1.50;;
82288;SDS011;71889;39.264;-120.910;2024-02-23T10:01:29;2.28;;;1.25;;
82288;SDS011;71889;39.264;-120.910;2024-02-23T10:04:18;3.03;;;1.45;;
82288;SDS011;71889;39.264;-120.910;2024-02-23T10:07:06;3.17;;;1.48;;
82288;SDS011;71889;39.264;-120.910;2024-02-23T10:09:53;2.88;;;1.70;;
82288;SDS011;71889;39.264;-120.910;2024-02-23T10:12:43;2.28;;;1.42;;
82288;SDS011;71889;39.264;-120.910;2024-02-23T10:15:30;3.05;;;1.00;;
82288;SDS011;71889;39.264;-120.910;2024-02-23T10:18:17;0.65;;;0.50;;
82288;SDS011;71889;39.264;-120.910;2024-02-23T10:21:04;1.35;;;0.60;;
82288;SDS011;71889;39.264;-120.910;2024-02-23T10:23:52;2.40;;;0.75;;
82288;SDS011;71889;39.264;-120.910;2024-02-23T10:26:39;1.80;;;0.55;;
82288;SDS011;71889;39.264;-120.910;2024-02-23T10:29:25;1.10;;;0.50;;
82288;SDS011;71889;39.264;-120.910;2024-02-23T10:32:14;1.08;;;0.43;;
82288;SDS011;71889;39.264;-120.910;2024-02-23T10:35:01;1.73;;;0.55;;
82288;SDS011;71889;39.264;-120.910;2024-02-23T10:37:50;1.17;;;0.55;;
82288;SDS011;71889;39.264;-120.910;2024-02-23T10:40:38;0.73;;;0.40;;
82288;SDS011;71889;39.264;-120.910;2024-02-23T10:43:41;1.20;;;0.65;;
82288;SDS011;71889;39.264;-120.910;2024-02-23T10:46:29;0.98;;;0.45;;
82288;SDS011;71889;39.264;-120.910;2024-02-23T10:49:17;4.10;;;0.88;;
82288;SDS011;71889;39.264;-120.910;2024-02-23T10:52:05;1.17;;;0.35;;
82288;SDS011;71889;39.264;-120.910;2024-02-23T10:54:53;2.83;;;0.75;;
82288;SDS011;71889;39.264;-120.910;2024-02-23T10:57:41;2.70;;;0.77;;
82288;SDS011;71889;39.264;-120.910;2024-02-23T11:00:28;2.80;;;0.65;;
82288;SDS011;71889;39.264;-120.910;2024-02-23T11:03:15;2.95;;;0.98;;
82288;SDS011;71889;39.264;-120.910;2024-02-23T11:06:05;1.77;;;0.68;;
82288;SDS011;71889;39.264;-120.910;2024-02-23T11:08:52;3.60;;;1.00;;
82288;SDS011;71889;39.264;-120.910;2024-02-23T11:11:40;2.65;;;1.10;;
82288;SDS011;71889;39.264;-120.910;2024-02-23T11:14:37;1.63;;;0.75;;
82288;SDS011;71889;39.264;-120.910;2024-02-23T11:17:26;1.40;;;0.93;;
82288;SDS011;71889;39.264;-120.910;2024-02-23T11:20:14;1.63;;;0.60;;
82288;SDS011;71889;39.264;-120.910;2024-02-23T11:23:01;1.55;;;0.57;;
82288;SDS011;71889;39.264;-120.910;2024-02-23T11:28:51;2.28;;;0.50;;
82288;SDS011;71889;39.264;-120.910;2024-02-23T11:31:44;1.50;;;0.50;;
82288;SDS011;71889;39.264;-120.910;2024-02-23T11:34:31;1.08;;;0.50;;
82288;SDS011;71889;39.264;-120.910;2024-02-23T11:37:18;1.20;;;0.40;;
82288;SDS011;71889;39.264;-120.910;2024-02-23T11:40:05;0.55;;;0.28;;
82288;SDS011;71889;39.264;-120.910;2024-02-23T11:42:57;0.35;;;0.30;;
82288;SDS011;71889;39.264;-120.910;2024-02-23T11:45:46;0.77;;;0.40;;
82288;SDS011;71889;39.264;-120.910;2024-02-23T11:48:33;3.20;;;0.65;;
82288;SDS011;71889;39.264;-120.910;2024-02-23T11:51:23;0.77;;;0.25;;
82288;SDS011;71889;39.264;-120.910;2024-02-23T11:54:14;0.63;;;0.38;;
82288;SDS011;71889;39.264;-120.910;2024-02-23T11:57:01;4.82;;;1.02;;
82288;SDS011;71889;39.264;-120.910;2024-02-23T11:59:50;7.05;;;2.13;;
82288;SDS011;71889;39.264;-120.910;2024-02-23T12:02:37;5.28;;;1.98;;
82288;SDS011;71889;39.264;-120.910;2024-02-23T12:05:24;4.22;;;0.90;;
82288;SDS011;71889;39.264;-120.910;2024-02-23T12:08:12;1.15;;;0.30;;
82288;SDS011;71889;39.264;-120.910;2024-02-23T12:10:59;1.52;;;0.60;;
82288;SDS011;71889;39.264;-120.910;2024-02-23T12:13:46;0.47;;;0.22;;
82288;SDS011;71889;39.264;-120.910;2024-02-23T12:16:33;0.93;;;0.22;;
82288;SDS011;71889;39.264;-120.910;2024-02-23T12:19:23;0.95;;;0.40;;
82288;SDS011;71889;39.264;-120.910;2024-02-23T12:22:10;0.60;;;0.30;;
82288;SDS011;71889;39.264;-120.910;2024-02-23T12:25:01;0.77;;;0.35;;
82288;SDS011;71889;39.264;-120.910;2024-02-23T12:27:53;0.90;;;0.43;;
82288;SDS011;71889;39.264;-120.910;2024-02-23T12:30:41;0.47;;;0.20;;
82288;SDS011;71889;39.264;-120.910;2024-02-23T12:33:28;1.13;;;0.38;;
82288;SDS011;71889;39.264;-120.910;2024-02-23T12:36:15;1.33;;;0.43;;
82288;SDS011;71889;39.264;-120.910;2024-02-23T12:39:03;1.33;;;0.60;;
82288;SDS011;71889;39.264;-120.910;2024-02-23T12:41:50;2.13;;;0.98;;
82288;SDS011;71889;39.264;-120.910;2024-02-23T12:44:37;5.32;;;1.63;;
82288;SDS011;71889;39.264;-120.910;2024-02-23T12:47:24;2.40;;;0.93;;
82288;SDS011;71889;39.264;-120.910;2024-02-23T12:50:10;2.55;;;0.88;;
82288;SDS011;71889;39.264;-120.910;2024-02-23T12:52:57;2.58;;;0.60;;
82288;SDS011;71889;39.264;-120.910;2024-02-23T12:55:46;1.92;;;0.63;;
82288;SDS011;71889;39.264;-120.910;2024-02-23T12:58:34;1.85;;;0.52;;
82288;SDS011;71889;39.264;-120.910;2024-02-23T13:01:20;3.25;;;0.95;;
82288;SDS011;71889;39.264;-120.910;2024-02-23T13:04:08;2.35;;;0.80;;
82288;SDS011;71889;39.264;-120.910;2024-02-23T13:06:58;2.72;;;0.93;;
82288;SDS011;71889;39.264;-120.910;2024-02-23T13:09:45;1.00;;;0.55;;
82288;SDS011;71889;39.264;-120.910;2024-02-23T13:12:32;2.92;;;0.80;;
82288;SDS011;71889;39.264;-120.910;2024-02-23T13:15:19;2.17;;;0.63;;
82288;SDS011;71889;39.264;-120.910;2024-02-23T13:18:06;1.05;;;0.50;;
82288;SDS011;71889;39.264;-120.910;2024-02-23T13:20:53;3.45;;;0.30;;
82288;SDS011;71889;39.264;-120.910;2024-02-23T13:23:40;1.35;;;0.40;;
82288;SDS011;71889;39.264;-120.910;2024-02-23T13:26:28;0.35;;;0.20;;
82288;SDS011;71889;39.264;-120.910;2024-02-23T13:29:15;0.50;;;0.32;;
82288;SDS011;71889;39.264;-120.910;2024-02-23T13:32:03;0.52;;;0.22;;
82288;SDS011;71889;39.264;-120.910;2024-02-23T13:34:50;0.93;;;0.38;;
82288;SDS011;71889;39.264;-120.910;2024-02-23T13:37:38;0.40;;;0.20;;
82288;SDS011;71889;39.264;-120.910;2024-02-23T13:40:25;0.47;;;0.20;;
82288;SDS011;71889;39.264;-120.910;2024-02-23T13:43:12;0.32;;;0.10;;
82288;SDS011;71889;39.264;-120.910;2024-02-23T13:45:59;0.50;;;0.30;;
82288;SDS011;71889;39.264;-120.910;2024-02-23T13:48:46;0.65;;;0.25;;
82288;SDS011;71889;39.264;-120.910;2024-02-23T13:51:36;0.65;;;0.38;;
82288;SDS011;71889;39.264;-120.910;2024-02-23T13:54:23;3.95;;;1.60;;
82288;SDS011;71889;39.264;-120.910;2024-02-23T13:57:10;6.50;;;2.90;;
82288;SDS011;71889;39.264;-120.910;2024-02-23T13:59:57;3.92;;;2.40;;
82288;SDS011;71889;39.264;-120.910;2024-02-23T14:02:44;5.20;;;2.55;;
82288;SDS011;71889;39.264;-120.910;2024-02-23T14:05:31;6.90;;;3.00;;
82288;SDS011;71889;39.264;-120.910;2024-02-23T14:08:18;3.53;;;1.60;;
82288;SDS011;71889;39.264;-120.910;2024-02-23T14:11:05;4.10;;;0.90;;
82288;SDS011;71889;39.264;-120.910;2024-02-23T14:13:52;1.73;;;0.93;;
82288;SDS011;71889;39.264;-120.910;2024-02-23T14:16:39;1.95;;;0.70;;
82288;SDS011;71889;39.264;-120.910;2024-02-23T14:19:26;0.88;;;0.52;;
82288;SDS011;71889;39.264;-120.910;2024-02-23T14:22:13;2.08;;;0.60;;
82288;SDS011;71889;39.264;-120.910;2024-02-23T14:25:00;1.15;;;0.63;;
82288;SDS011;71889;39.264;-120.910;2024-02-23T14:27:47;5.38;;;1.23;;
82288;SDS011;71889;39.264;-120.910;2024-02-23T14:30:34;3.78;;;1.45;;
82288;SDS011;71889;39.264;-120.910;2024-02-23T14:33:21;7.65;;;2.03;;
82288;SDS011;71889;39.264;-120.910;2024-02-23T14:36:08;4.47;;;2.10;;
82288;SDS011;71889;39.264;-120.910;2024-02-23T14:38:55;3.30;;;1.45;;
82288;SDS011;71889;39.264;-120.910;2024-02-23T14:41:42;4.88;;;1.35;;
82288;SDS011;71889;39.264;-120.910;2024-02-23T14:44:29;5.32;;;1.80;;
82288;SDS011;71889;39.264;-120.910;2024-02-23T14:47:16;3.83;;;1.27;;
82288;SDS011;71889;39.264;-120.910;2024-02-23T14:50:03;9.35;;;1.92;;
82288;SDS011;71889;39.264;-120.910;2024-02-23T14:52:50;12.13;;;2.72;;
82288;SDS011;71889;39.264;-120.910;2024-02-23T14:55:37;14.18;;;2.45;;
82288;SDS011;71889;39.264;-120.910;2024-02-23T14:58:24;2.72;;;1.13;;
82288;SDS011;71889;39.264;-120.910;2024-02-23T15:01:11;1.52;;;0.50;;
82288;SDS011;71889;39.264;-120.910;2024-02-23T15:04:01;1.10;;;0.30;;
82288;SDS011;71889;39.264;-120.910;2024-02-23T15:06:48;1.27;;;0.40;;
82288;SDS011;71889;39.264;-120.910;2024-02-23T15:09:35;0.98;;;0.30;;
82288;SDS011;71889;39.264;-120.910;2024-02-23T15:12:22;1.58;;;0.60;;
82288;SDS011;71889;39.264;-120.910;2024-02-23T15:15:10;3.33;;;0.88;;
82288;SDS011;71889;39.264;-120.910;2024-02-23T15:17:57;5.78;;;1.50;;
82288;SDS011;71889;39.264;-120.910;2024-02-23T15:20:44;9.68;;;2.25;;
82288;SDS011;71889;39.264;-120.910;2024-02-23T15:23:32;10.15;;;2.63;;
82288;SDS011;71889;39.264;-120.910;2024-02-23T15:26:19;7.20;;;4.00;;
82288;SDS011;71889;39.264;-120.910;2024-02-23T15:29:06;7.55;;;2.80;;
82288;SDS011;71889;39.264;-120.910;2024-02-23T15:31:53;5.75;;;2.42;;
82288;SDS011;71889;39.264;-120.910;2024-02-23T15:34:40;16.05;;;5.65;;
82288;SDS011;71889;39.264;-120.910;2024-02-23T15:37:27;22.08;;;6.53;;
82288;SDS011;71889;39.264;-120.910;2024-02-23T15:40:14;8.45;;;3.72;;
82288;SDS011;71889;39.264;-120.910;2024-02-23T15:43:01;11.85;;;3.97;;
82288;SDS011;71889;39.264;-120.910;2024-02-23T15:45:49;15.13;;;3.85;;
82288;SDS011;71889;39.264;-120.910;2024-02-23T15:48:36;3.85;;;1.80;;
82288;SDS011;71889;39.264;-120.910;2024-02-23T15:51:23;4.03;;;2.00;;
82288;SDS011;71889;39.264;-120.910;2024-02-23T15:54:10;3.63;;;1.50;;
82288;SDS011;71889;39.264;-120.910;2024-02-23T15:56:58;1.38;;;0.68;;
82288;SDS011;71889;39.264;-120.910;2024-02-23T15:59:45;0.75;;;0.40;;
82288;SDS011;71889;39.264;-120.910;2024-02-23T16:02:33;1.00;;;0.60;;
82288;SDS011;71889;39.264;-120.910;2024-02-23T16:05:21;0.57;;;0.30;;